Time;durP1;ratioP1;P1;durP2;ratioP2;P2;SDS_P1;SDS_P2;PMS_P1;PMS_P2;Temp;Humidity;BMP_temperature;BMP_pressure;BME280_temperature;BME280_humidity;BME280_pressure;Samples;Min_cycle;Max_cycle;Signal;HPM_P1;HPM_P2
2023/01/17 00:01:12;;;;;;;0.80;0.60;;;4.60;99.90;;;;;;10002395;28;20096;-56
2023/01/17 00:11:12;;;;;;;0.65;0.65;;;4.70;99.90;;;;;;9992283;28;20034;-59
2023/01/17 00:16:03;;;;;;;1.73;0.80;;;4.80;99.90;;;;;;10002772;28;20042;-60
2023/01/17 00:26:08;;;;;;;1.60;0.85;;;5.00;99.90;;;;;;9988768;28;20080;-58
2023/01/17 01:37:10;;;;;;;0.60;0.30;;;4.70;99.90;;;;;;9992458;28;20089;-60
2023/01/17 01:42:01;;;;;;;1.15;0.75;;;4.60;99.90;;;;;;9987340;28;20100;-58
2023/01/17 01:46:52;;;;;;;0.75;0.40;;;4.40;99.90;;;;;;9978502;28;20038;-58
2023/01/17 01:51:48;;;;;;;0.45;0.45;;;4.30;99.90;;;;;;9978077;28;20033;-60
2023/01/17 01:56:40;;;;;;;0.35;0.35;;;4.20;99.90;;;;;;9982576;28;20100;-59
2023/01/17 02:01:31;;;;;;;0.60;0.40;;;4.20;99.90;;;;;;9980080;28;20023;-60
2023/01/17 02:06:34;;;;;;;0.75;0.40;;;4.20;99.90;;;;;;9983399;28;20516;-57
2023/01/17 02:11:26;;;;;;;0.40;0.40;;;4.30;99.90;;;;;;9969858;28;20031;-58
2023/01/17 02:16:35;;;;;;;0.30;0.30;;;4.40;99.90;;;;;;9977843;28;20034;-58
2023/01/17 02:21:42;;;;;;;0.73;0.50;;;4.50;99.90;;;;;;9977099;28;20587;-60
2023/01/17 02:27:05;;;;;;;1.27;0.52;;;4.60;99.90;;;;;;9981858;28;20142;-60
2023/01/17 02:32:00;;;;;;;0.50;0.50;;;4.60;99.90;;;;;;9972145;28;20516;-58
2023/01/17 02:37:01;;;;;;;1.02;0.60;;;4.70;99.90;;;;;;9984423;28;20492;-60
2023/01/17 02:42:15;;;;;;;0.60;0.40;;;4.70;99.90;;;;;;9987414;28;20050;-58
2023/01/17 02:47:35;;;;;;;0.82;0.70;;;4.80;99.90;;;;;;9980051;28;20042;-58
2023/01/17 02:53:00;;;;;;;0.82;0.47;;;4.80;99.90;;;;;;9967138;28;20393;-59
2023/01/17 02:58:03;;;;;;;1.15;0.75;;;4.80;99.90;;;;;;9976516;28;20129;-60
2023/01/17 03:03:18;;;;;;;1.23;0.65;;;4.90;99.90;;;;;;9983649;28;20038;-61
2023/01/17 03:08:11;;;;;;;0.63;0.55;;;5.00;99.90;;;;;;9984001;28;20034;-59
2023/01/17 03:13:02;;;;;;;0.60;0.52;;;5.10;99.90;;;;;;9983936;28;20034;-59
2023/01/17 03:17:59;;;;;;;2.05;1.00;;;5.10;99.90;;;;;;9984512;28;20529;-59
2023/01/17 03:22:50;;;;;;;0.55;0.45;;;5.00;99.90;;;;;;9983083;28;20026;-58
2023/01/17 03:27:41;;;;;;;2.47;0.55;;;5.00;99.90;;;;;;9993821;28;20440;-61
2023/01/17 03:32:31;;;;;;;0.60;0.50;;;4.90;99.90;;;;;;10001808;28;20033;-58
2023/01/17 03:37:22;;;;;;;1.73;0.60;;;5.00;99.90;;;;;;10004764;28;20510;-58
2023/01/17 03:42:13;;;;;;;0.80;0.60;;;5.00;99.90;;;;;;9990327;28;20049;-57
2023/01/17 03:47:04;;;;;;;0.73;0.50;;;5.00;99.90;;;;;;10011321;28;20038;-63
2023/01/17 03:51:54;;;;;;;0.95;0.60;;;5.00;99.90;;;;;;9995643;28;20115;-58
2023/01/17 03:56:45;;;;;;;1.67;0.63;;;5.00;99.90;;;;;;9987480;28;20037;-56
2023/01/17 04:01:36;;;;;;;0.50;0.40;;;4.80;99.90;;;;;;9996870;28;20185;-59
2023/01/17 04:06:27;;;;;;;0.40;0.40;;;4.70;99.90;;;;;;9985110;28;20137;-57
2023/01/17 04:11:18;;;;;;;0.90;0.30;;;4.70;99.90;;;;;;10004601;28;20069;-59
2023/01/17 04:16:15;;;;;;;1.77;0.50;;;4.70;99.90;;;;;;9997038;28;20101;-57
2023/01/17 04:21:06;;;;;;;1.63;0.30;;;4.80;99.90;;;;;;9968019;28;20021;-61
2023/01/17 04:25:57;;;;;;;0.93;0.80;;;4.80;99.90;;;;;;9987904;28;20450;-59
2023/01/17 04:30:48;;;;;;;2.42;0.52;;;4.80;99.90;;;;;;9994973;28;20109;-60
2023/01/17 04:35:38;;;;;;;2.15;0.50;;;4.80;99.90;;;;;;9997720;28;20420;-59
2023/01/17 04:40:29;;;;;;;0.70;0.30;;;4.80;99.90;;;;;;9994969;28;20049;-58
2023/01/17 04:45:20;;;;;;;0.55;0.43;;;4.80;99.90;;;;;;10012450;28;20095;-59
2023/01/17 04:50:11;;;;;;;0.80;0.50;;;4.80;99.90;;;;;;10001852;28;20117;-59
2023/01/17 04:55:02;;;;;;;1.00;0.43;;;4.80;99.90;;;;;;9989972;28;20037;-59
2023/01/17 04:59:53;;;;;;;1.98;0.40;;;4.80;99.90;;;;;;9995400;28;20041;-61
2023/01/17 05:04:43;;;;;;;1.20;0.60;;;4.90;99.90;;;;;;9991932;28;20034;-54
2023/01/17 05:09:34;;;;;;;1.60;0.55;;;4.90;99.90;;;;;;9997295;28;20036;-60
2023/01/17 05:14:25;;;;;;;0.52;0.40;;;4.90;99.90;;;;;;9999785;28;20041;-58
2023/01/17 05:19:16;;;;;;;1.27;0.75;;;4.80;99.90;;;;;;9960126;28;20026;-62
2023/01/17 05:24:06;;;;;;;1.13;0.60;;;4.70;99.90;;;;;;9983499;28;20042;-60
2023/01/17 05:28:57;;;;;;;0.60;0.35;;;4.60;99.90;;;;;;9989146;28;20022;-61
2023/01/17 05:33:47;;;;;;;1.27;0.40;;;4.50;99.90;;;;;;9997390;28;20026;-59
2023/01/17 05:38:38;;;;;;;0.90;0.70;;;4.40;99.90;;;;;;9988170;28;20385;-59
2023/01/17 05:43:29;;;;;;;0.60;0.40;;;4.40;99.90;;;;;;10008361;28;20050;-59
2023/01/17 05:48:20;;;;;;;1.10;0.45;;;4.40;99.90;;;;;;10006439;28;20038;-62
2023/01/17 05:53:13;;;;;;;0.73;0.38;;;4.30;99.90;;;;;;9981009;28;20019;-63
2023/01/17 05:58:05;;;;;;;1.65;0.50;;;4.40;99.90;;;;;;9989035;28;20050;-60
2023/01/17 06:02:57;;;;;;;1.67;0.40;;;4.30;99.90;;;;;;9991374;28;20340;-64
2023/01/17 06:07:49;;;;;;;1.70;0.57;;;4.30;99.90;;;;;;9993283;28;20030;-60
2023/01/17 06:12:44;;;;;;;0.85;0.80;;;4.30;99.90;;;;;;10001323;28;20061;-59
2023/01/17 06:17:35;;;;;;;0.87;0.60;;;4.30;99.90;;;;;;9990602;28;20030;-57
2023/01/17 06:22:26;;;;;;;1.40;0.77;;;4.20;99.90;;;;;;9981694;28;20113;-60
2023/01/17 06:27:16;;;;;;;4.03;0.95;;;4.20;99.90;;;;;;9984873;28;20129;-59
2023/01/17 06:32:07;;;;;;;1.08;0.68;;;4.10;99.90;;;;;;9994487;28;20037;-57
2023/01/17 06:37:01;;;;;;;0.77;0.70;;;4.20;99.90;;;;;;9997815;28;20063;-58
2023/01/17 06:41:52;;;;;;;1.42;0.50;;;4.10;99.90;;;;;;10006923;28;20527;-60
2023/01/17 06:46:43;;;;;;;3.67;0.85;;;4.10;99.90;;;;;;9977509;28;20052;-60
2023/01/17 06:51:34;;;;;;;0.73;0.70;;;4.10;99.90;;;;;;10005510;28;20026;-57
2023/01/17 06:56:25;;;;;;;3.00;1.13;;;4.10;99.90;;;;;;9992012;28;20463;-59
2023/01/17 07:01:16;;;;;;;3.40;0.90;;;4.10;99.90;;;;;;10003976;28;20036;-59
2023/01/17 07:06:08;;;;;;;1.50;0.93;;;4.10;99.90;;;;;;10002799;28;20117;-58
2023/01/17 07:11:01;;;;;;;2.97;1.00;;;4.10;99.90;;;;;;9983513;28;20076;-59
2023/01/17 07:15:52;;;;;;;1.17;0.95;;;4.10;99.90;;;;;;9983757;28;20029;-59
2023/01/17 07:20:42;;;;;;;2.15;1.05;;;4.20;99.90;;;;;;9983363;28;20018;-57
2023/01/17 07:25:33;;;;;;;2.35;1.05;;;4.20;99.90;;;;;;9983552;28;20041;-57
2023/01/17 07:30:24;;;;;;;2.30;1.15;;;4.30;99.90;;;;;;9997774;28;20366;-59
2023/01/17 07:35:15;;;;;;;2.03;0.98;;;4.30;99.90;;;;;;10000423;28;20084;-60
2023/01/17 07:40:06;;;;;;;1.00;0.95;;;4.30;99.90;;;;;;9995760;28;20062;-56
2023/01/17 07:44:56;;;;;;;1.65;1.10;;;4.30;99.90;;;;;;10015023;28;20107;-54
2023/01/17 07:49:47;;;;;;;2.40;0.75;;;4.30;99.90;;;;;;10000284;28;20152;-54
2023/01/17 07:54:38;;;;;;;2.47;1.73;;;4.30;99.90;;;;;;9988072;28;20421;-55
2023/01/17 07:59:29;;;;;;;1.30;1.20;;;4.20;99.90;;;;;;9999920;28;20527;-55
2023/01/17 08:04:19;;;;;;;2.28;1.27;;;4.20;99.90;;;;;;9979610;28;20104;-51
2023/01/17 08:09:10;;;;;;;4.60;1.25;;;4.20;99.90;;;;;;10007051;28;20026;-57
2023/01/17 08:14:00;;;;;;;1.20;0.95;;;4.30;99.90;;;;;;10004933;28;20135;-55
2023/01/17 08:18:53;;;;;;;2.67;1.55;;;4.10;99.90;;;;;;9976074;28;20035;-57
2023/01/17 08:23:51;;;;;;;5.10;1.40;;;4.10;99.90;;;;;;9984356;28;20358;-56
2023/01/17 08:28:41;;;;;;;2.60;1.45;;;4.10;99.90;;;;;;9987303;28;20397;-57
2023/01/17 08:33:32;;;;;;;2.92;1.52;;;4.20;99.90;;;;;;9993920;28;20027;-55
2023/01/17 08:38:22;;;;;;;3.85;1.85;;;4.00;99.90;;;;;;9982376;28;20056;-55
2023/01/17 08:43:16;;;;;;;2.55;1.38;;;4.10;99.90;;;;;;10010529;28;20050;-61
2023/01/17 08:48:07;;;;;;;1.63;1.35;;;4.10;99.90;;;;;;10006221;28;20452;-59
2023/01/17 08:52:58;;;;;;;3.20;1.52;;;4.20;99.90;;;;;;9994491;28;20564;-60
2023/01/17 08:57:49;;;;;;;3.00;1.58;;;4.20;99.90;;;;;;9979536;28;20385;-55
2023/01/17 09:02:39;;;;;;;1.35;1.20;;;4.20;99.90;;;;;;9993011;28;20034;-53
2023/01/17 09:07:30;;;;;;;2.25;1.30;;;4.30;99.90;;;;;;10009232;28;20044;-67
2023/01/17 09:12:21;;;;;;;1.67;1.15;;;4.40;99.90;;;;;;10008577;28;20026;-60
2023/01/17 09:17:12;;;;;;;3.00;1.75;;;4.50;99.90;;;;;;9982539;28;20118;-64
2023/01/17 09:22:04;;;;;;;3.70;1.92;;;4.70;99.90;;;;;;9984454;28;20108;-59
2023/01/17 09:26:54;;;;;;;4.22;2.25;;;4.80;99.90;;;;;;9986290;28;20022;-62
2023/01/17 09:31:46;;;;;;;2.45;1.83;;;5.00;99.90;;;;;;9995985;28;20026;-63
2023/01/17 09:36:37;;;;;;;3.33;1.38;;;5.00;99.90;;;;;;9994029;28;20018;-60
2023/01/17 09:41:36;;;;;;;1.92;1.52;;;5.00;99.90;;;;;;9991987;28;20042;-53
2023/01/17 09:46:36;;;;;;;3.45;1.50;;;5.10;99.90;;;;;;10005039;28;20041;-55
2023/01/17 09:51:27;;;;;;;6.43;1.40;;;5.30;99.90;;;;;;10003394;28;20266;-54
2023/01/17 09:56:28;;;;;;;2.83;1.38;;;5.30;99.90;;;;;;9983259;28;20660;-57
2023/01/17 10:01:54;;;;;;;5.45;2.65;;;5.50;99.90;;;;;;9983439;28;20022;-60
2023/01/17 10:06:53;;;;;;;4.47;2.30;;;5.50;99.90;;;;;;10003499;28;20033;-59
2023/01/17 10:11:57;;;;;;;4.68;1.88;;;5.60;99.90;;;;;;10001165;28;20029;-62
2023/01/17 10:16:57;;;;;;;2.47;1.30;;;5.50;99.90;;;;;;10013256;28;20034;-59
2023/01/17 10:22:01;;;;;;;1.52;1.23;;;5.40;99.90;;;;;;9996121;28;20077;-63
2023/01/17 10:26:55;;;;;;;5.10;2.22;;;5.50;99.90;;;;;;9983543;28;20054;-57
2023/01/17 10:31:58;;;;;;;3.88;1.90;;;5.50;99.90;;;;;;9977722;28;20030;-56
2023/01/17 10:36:54;;;;;;;3.30;1.58;;;5.60;99.90;;;;;;9985334;28;20480;-60
2023/01/17 10:41:54;;;;;;;3.88;1.52;;;5.70;99.90;;;;;;9985513;28;20428;-57
2023/01/17 10:47:09;;;;;;;7.57;2.08;;;5.70;99.90;;;;;;9976640;28;20046;-60
2023/01/17 10:52:07;;;;;;;4.07;1.60;;;5.70;99.90;;;;;;9977048;28;20056;-59
2023/01/17 10:56:58;;;;;;;2.28;1.30;;;5.80;99.90;;;;;;9969927;28;20037;-63
2023/01/17 11:01:48;;;;;;;4.40;1.50;;;6.10;99.90;;;;;;9981951;28;20029;-67
2023/01/17 11:06:41;;;;;;;4.95;1.70;;;6.00;99.90;;;;;;9978364;28;20037;-64
2023/01/17 11:11:35;;;;;;;2.17;0.90;;;6.00;99.90;;;;;;9976644;28;20400;-63
2023/01/17 11:16:30;;;;;;;1.73;1.10;;;6.10;99.90;;;;;;9976558;28;20053;-60
2023/01/17 11:21:23;;;;;;;3.30;1.40;;;6.30;99.90;;;;;;9957837;28;20427;-59
2023/01/17 11:26:27;;;;;;;2.10;0.95;;;6.30;99.90;;;;;;9982983;28;20496;-60
2023/01/17 11:31:17;;;;;;;2.78;1.27;;;6.20;99.90;;;;;;9982414;28;20098;-63
2023/01/17 11:36:18;;;;;;;3.15;1.25;;;6.10;99.90;;;;;;9988604;28;20529;-59
2023/01/17 11:41:19;;;;;;;1.95;1.45;;;6.10;99.90;;;;;;9975737;28;20082;-59
2023/01/17 11:46:16;;;;;;;3.78;1.55;;;6.20;99.90;;;;;;9981706;28;20681;-59
2023/01/17 11:51:18;;;;;;;2.10;1.30;;;6.30;99.90;;;;;;9982014;28;20041;-59
2023/01/17 11:56:18;;;;;;;1.10;1.00;;;6.40;99.90;;;;;;9982416;28;20120;-60
2023/01/17 12:01:45;;;;;;;3.88;1.00;;;6.50;99.90;;;;;;9981240;28;20027;-61
2023/01/17 12:06:51;;;;;;;1.08;0.73;;;6.50;99.90;;;;;;9981559;28;20026;-61
2023/01/17 12:17:43;;;;;;;2.58;1.20;;;6.50;99.90;;;;;;9955828;28;20032;-61
2023/01/17 12:22:58;;;;;;;2.90;1.05;;;6.40;99.90;;;;;;9991103;28;20065;-59
2023/01/17 12:27:58;;;;;;;1.85;1.00;;;6.30;99.90;;;;;;9979780;28;20045;-62
2023/01/17 12:33:17;;;;;;;1.75;0.90;;;6.30;99.90;;;;;;9980234;28;20504;-59
2023/01/17 12:38:13;;;;;;;2.17;1.10;;;6.30;99.90;;;;;;9954816;28;20540;-58
2023/01/17 12:43:28;;;;;;;3.58;1.00;;;6.40;99.90;;;;;;9983889;28;20050;-59
2023/01/17 12:48:21;;;;;;;1.65;1.00;;;6.50;99.90;;;;;;9944167;28;20042;-60
2023/01/17 12:53:36;;;;;;;2.67;1.00;;;6.90;99.90;;;;;;9986019;28;20034;-60
2023/01/17 12:58:35;;;;;;;2.75;1.27;;;7.20;99.90;;;;;;9986953;28;20543;-59
2023/01/17 13:03:42;;;;;;;4.35;1.40;;;7.40;99.90;;;;;;9979815;28;20049;-58
2023/01/17 13:08:41;;;;;;;1.00;0.73;;;7.70;99.90;;;;;;9978856;28;20038;-55
2023/01/17 13:13:34;;;;;;;1.00;0.50;;;7.70;99.90;;;;;;9981953;28;20088;-59
2023/01/17 13:18:28;;;;;;;1.98;1.08;;;7.70;99.90;;;;;;9977511;28;20015;-61
2023/01/17 13:23:32;;;;;;;0.95;0.63;;;7.70;99.90;;;;;;9990063;28;20092;-61
2023/01/17 13:28:54;;;;;;;0.50;0.45;;;7.60;99.90;;;;;;9961264;28;20573;-60
2023/01/17 13:34:20;;;;;;;2.70;0.55;;;7.40;99.90;;;;;;9983198;28;20031;-57
2023/01/17 13:39:41;;;;;;;2.33;0.32;;;7.30;99.90;;;;;;9891565;28;20137;-60
2023/01/17 13:44:32;;;;;;;0.95;0.50;;;7.30;99.90;;;;;;9953363;28;20129;-54
2023/01/17 13:49:32;;;;;;;5.57;1.17;;;7.20;99.90;;;;;;9937036;28;20122;-56
2023/01/17 13:54:40;;;;;;;0.57;0.50;;;7.10;99.90;;;;;;9939520;28;20050;-59
2023/01/17 13:59:31;;;;;;;0.68;0.57;;;7.00;99.90;;;;;;9944183;28;20023;-55
2023/01/17 14:04:23;;;;;;;1.10;0.70;;;7.00;99.90;;;;;;9944720;28;20042;-56
2023/01/17 14:09:27;;;;;;;2.03;0.68;;;6.90;99.90;;;;;;9934882;28;20215;-56
2023/01/17 14:14:35;;;;;;;1.55;0.90;;;7.00;99.90;;;;;;9937713;28;20030;-58
2023/01/17 14:19:26;;;;;;;3.55;1.10;;;7.10;99.90;;;;;;9935142;28;21431;-57
2023/01/17 14:24:18;;;;;;;0.90;0.90;;;7.00;99.90;;;;;;9932269;28;20178;-56
2023/01/17 14:29:46;;;;;;;0.88;0.60;;;6.90;99.90;;;;;;9937716;28;20042;-57
2023/01/17 14:34:37;;;;;;;2.15;0.50;;;7.00;99.90;;;;;;9944591;28;20045;-57
2023/01/17 14:39:27;;;;;;;1.40;0.70;;;7.00;99.90;;;;;;9948881;28;20041;-58
2023/01/17 14:44:18;;;;;;;2.60;0.80;;;7.00;99.90;;;;;;9981402;28;20068;-56
2023/01/17 14:49:24;;;;;;;0.68;0.47;;;7.00;99.90;;;;;;10000305;28;20500;-60
2023/01/17 14:54:17;;;;;;;;;;;7.00;99.90;;;;;;9975867;28;20025;-58
2023/01/17 14:59:15;;;;;;;1.30;0.57;;;7.00;99.90;;;;;;9966969;28;19937;-60
2023/01/17 15:04:19;;;;;;;3.08;0.82;;;6.90;99.90;;;;;;9993484;28;20038;-57
2023/01/17 15:09:20;;;;;;;2.25;0.85;;;6.80;99.90;;;;;;9999300;28;20037;-55
2023/01/17 15:14:23;;;;;;;1.33;0.85;;;6.80;99.90;;;;;;10009139;28;20058;-56
2023/01/17 15:19:14;;;;;;;1.00;0.70;;;6.80;99.90;;;;;;10006250;28;20018;-56
2023/01/17 15:24:33;;;;;;;1.17;0.70;;;6.90;99.90;;;;;;10009851;28;20034;-59
2023/01/17 15:29:30;;;;;;;1.08;0.47;;;6.80;99.90;;;;;;9973485;28;20117;-57
2023/01/17 15:34:45;;;;;;;1.35;0.85;;;6.80;99.90;;;;;;9981666;28;20030;-59
2023/01/17 15:39:39;;;;;;;0.63;0.50;;;6.60;99.90;;;;;;9990701;28;20079;-58
2023/01/17 15:44:38;;;;;;;3.70;0.75;;;6.60;99.90;;;;;;9965820;28;20603;-58
2023/01/17 15:49:29;;;;;;;1.30;0.60;;;6.60;99.90;;;;;;9985612;28;20042;-59
2023/01/17 15:54:35;;;;;;;0.70;0.47;;;6.70;99.90;;;;;;9984073;28;20011;-56
2023/01/17 15:59:45;;;;;;;2.20;0.60;;;6.50;99.90;;;;;;9984193;28;20030;-57
2023/01/17 16:04:36;;;;;;;0.88;0.50;;;6.40;99.90;;;;;;9991087;28;20030;-59
2023/01/17 16:09:26;;;;;;;1.95;0.60;;;6.30;99.90;;;;;;10000488;28;20567;-58
2023/01/17 16:14:17;;;;;;;0.35;0.30;;;6.30;99.90;;;;;;10007129;28;20464;-57
2023/01/17 16:19:08;;;;;;;0.70;0.30;;;6.20;99.90;;;;;;9981019;28;20461;-61
2023/01/17 16:24:00;;;;;;;1.20;0.70;;;6.00;99.90;;;;;;10006719;28;20077;-61
2023/01/17 16:28:51;;;;;;;0.80;0.52;;;6.00;99.90;;;;;;9980657;28;20034;-59
2023/01/17 16:33:41;;;;;;;1.30;0.63;;;5.90;99.90;;;;;;9989681;28;20520;-61
2023/01/17 16:38:32;;;;;;;1.88;0.70;;;5.80;99.90;;;;;;9988684;28;20088;-64
2023/01/17 16:43:23;;;;;;;1.23;0.63;;;5.80;99.90;;;;;;9987309;28;20096;-61
2023/01/17 16:48:14;;;;;;;1.15;0.60;;;5.80;99.90;;;;;;10006043;28;20037;-61
2023/01/17 16:53:04;;;;;;;1.83;0.57;;;5.70;99.90;;;;;;9986636;28;20382;-62
2023/01/17 16:57:57;;;;;;;0.60;0.60;;;5.50;99.90;;;;;;9985879;28;20145;-62
2023/01/17 17:02:51;;;;;;;0.98;0.70;;;5.50;99.90;;;;;;9987456;28;20105;-58
2023/01/17 17:07:44;;;;;;;0.82;0.60;;;5.50;99.90;;;;;;9997460;28;20038;-55
2023/01/17 17:12:34;;;;;;;1.92;1.00;;;5.50;99.90;;;;;;10002902;28;20030;-57
2023/01/17 17:17:25;;;;;;;1.05;0.57;;;5.40;99.90;;;;;;10007893;28;20366;-58
2023/01/17 17:22:16;;;;;;;2.97;1.00;;;5.20;99.90;;;;;;10013331;28;20034;-57
2023/01/17 17:27:06;;;;;;;5.00;1.13;;;5.20;99.90;;;;;;9985327;28;20049;-55
2023/01/17 17:31:57;;;;;;;8.70;3.00;;;5.20;99.90;;;;;;9983659;28;20105;-59
2023/01/17 17:36:48;;;;;;;6.78;2.15;;;5.10;99.90;;;;;;9990719;28;20026;-55
2023/01/17 17:41:41;;;;;;;6.70;2.97;;;5.00;99.90;;;;;;9973559;28;20725;-58
2023/01/17 17:46:33;;;;;;;4.65;2.08;;;5.00;99.90;;;;;;9984736;28;20074;-54
2023/01/17 17:51:25;;;;;;;2.80;1.63;;;4.90;99.90;;;;;;9961259;28;20469;-57
2023/01/17 17:56:15;;;;;;;1.30;1.10;;;4.90;99.90;;;;;;9981496;28;20022;-58
2023/01/17 18:01:06;;;;;;;2.90;1.23;;;4.90;99.90;;;;;;9990643;28;20493;-62
2023/01/17 18:06:01;;;;;;;2.10;1.23;;;4.90;99.90;;;;;;9986450;28;20096;-64
2023/01/17 18:10:57;;;;;;;2.67;0.93;;;4.90;99.90;;;;;;9971114;28;20034;-75
2023/01/17 18:15:48;;;;;;;5.68;2.45;;;4.80;99.90;;;;;;9970453;28;20069;-74
2023/01/17 18:20:39;;;;;;;4.90;2.35;;;4.80;99.90;;;;;;9973970;28;20034;-71
2023/01/17 18:25:29;;;;;;;4.53;2.10;;;4.80;99.90;;;;;;9977327;28;20042;-70
2023/01/17 18:30:20;;;;;;;5.28;2.47;;;4.80;99.90;;;;;;9988298;28;20030;-69
2023/01/17 18:35:10;;;;;;;4.47;2.78;;;4.80;99.90;;;;;;9998209;28;20033;-69
2023/01/17 18:40:01;;;;;;;5.65;3.42;;;4.90;99.90;;;;;;10000264;28;20050;-62
2023/01/17 18:44:52;;;;;;;2.65;1.88;;;4.70;99.90;;;;;;9996554;28;20049;-63
2023/01/17 18:49:43;;;;;;;2.80;1.58;;;4.70;99.90;;;;;;10009161;28;20025;-62
2023/01/17 18:54:34;;;;;;;2.35;1.58;;;4.70;99.90;;;;;;9983825;28;20033;-69
2023/01/17 18:59:25;;;;;;;2.78;1.90;;;4.60;99.90;;;;;;9983689;28;20030;-67
2023/01/17 19:04:16;;;;;;;3.40;1.35;;;4.60;99.90;;;;;;9971353;28;20046;-66
2023/01/17 19:09:07;;;;;;;2.83;1.63;;;4.60;99.90;;;;;;10012110;28;20511;-66
2023/01/17 19:13:58;;;;;;;3.03;2.55;;;4.50;99.90;;;;;;9976740;28;20084;-63
2023/01/17 19:18:50;;;;;;;4.95;2.40;;;4.50;99.90;;;;;;10005133;28;20076;-63
2023/01/17 19:23:44;;;;;;;4.78;2.22;;;4.60;99.90;;;;;;10014545;28;20026;-63
2023/01/17 19:28:43;;;;;;;2.25;1.90;;;4.50;99.90;;;;;;9986523;28;20125;-64
2023/01/17 19:33:35;;;;;;;2.70;1.60;;;4.40;99.90;;;;;;9986507;28;20523;-64
2023/01/17 19:38:26;;;;;;;3.75;1.17;;;4.40;99.90;;;;;;9986667;28;20033;-62
2023/01/17 19:43:19;;;;;;;3.88;1.42;;;4.20;99.90;;;;;;9982555;28;20058;-63
2023/01/17 19:48:13;;;;;;;4.15;1.30;;;4.20;99.90;;;;;;9980554;28;22003;-63
2023/01/17 19:53:04;;;;;;;1.48;1.08;;;4.10;99.90;;;;;;9972754;28;20030;-62
2023/01/17 19:57:54;;;;;;;3.25;1.48;;;4.10;99.90;;;;;;9987692;28;20509;-62
2023/01/17 20:02:45;;;;;;;1.85;1.38;;;4.00;99.90;;;;;;9959969;28;20477;-60
2023/01/17 20:07:36;;;;;;;2.20;1.25;;;4.00;99.90;;;;;;9995247;28;20424;-62
2023/01/17 20:12:27;;;;;;;1.90;1.08;;;3.90;99.90;;;;;;9995024;28;20026;-65
2023/01/17 20:17:17;;;;;;;4.55;1.73;;;3.80;99.90;;;;;;9975198;28;20121;-63
2023/01/17 20:22:08;;;;;;;3.60;1.40;;;3.80;99.90;;;;;;9983412;28;20041;-65
2023/01/17 20:27:00;;;;;;;2.00;1.25;;;3.80;99.90;;;;;;9984104;28;20552;-62
2023/01/17 20:31:52;;;;;;;2.75;1.00;;;3.70;99.90;;;;;;9979786;28;20034;-63
2023/01/17 20:36:43;;;;;;;1.30;1.20;;;3.70;99.90;;;;;;9980492;28;20034;-63
2023/01/17 20:41:36;;;;;;;1.35;0.98;;;3.60;99.90;;;;;;9981038;28;20517;-63
2023/01/17 20:46:34;;;;;;;2.10;1.20;;;3.50;99.90;;;;;;9983161;28;20038;-66
2023/01/17 20:51:26;;;;;;;4.05;0.95;;;3.50;99.90;;;;;;9966819;28;20038;-65
2023/01/17 20:56:17;;;;;;;1.58;1.00;;;3.50;99.90;;;;;;9978412;28;20058;-67
2023/01/17 21:01:10;;;;;;;2.67;1.02;;;3.70;99.90;;;;;;9978943;28;20310;-62
2023/01/17 21:06:12;;;;;;;2.42;1.20;;;3.70;99.90;;;;;;9975757;28;20085;-64
2023/01/17 21:11:04;;;;;;;2.15;1.30;;;3.60;99.90;;;;;;9971918;28;20045;-63
2023/01/17 21:15:54;;;;;;;1.65;0.98;;;3.50;99.90;;;;;;9977897;28;20117;-62
2023/01/17 21:20:46;;;;;;;2.88;1.40;;;3.50;99.90;;;;;;9978130;28;20114;-65
2023/01/17 21:25:37;;;;;;;3.03;1.55;;;3.50;99.90;;;;;;9978463;28;20054;-65
2023/01/17 21:30:28;;;;;;;6.45;2.10;;;3.50;99.90;;;;;;9981980;28;20596;-68
2023/01/17 21:35:18;;;;;;;4.45;1.83;;;3.50;99.90;;;;;;9976945;28;20074;-68
2023/01/17 21:40:10;;;;;;;3.78;1.70;;;3.40;99.90;;;;;;9978259;28;20126;-63
2023/01/17 21:45:00;;;;;;;3.30;1.58;;;3.50;99.90;;;;;;9981553;28;20038;-65
2023/01/17 21:49:52;;;;;;;3.92;1.58;;;3.50;99.90;;;;;;9971681;28;20033;-64
2023/01/17 21:59:52;;;;;;;2.85;1.55;;;3.60;99.90;;;;;;9978182;28;20053;-60
2023/01/17 22:04:43;;;;;;;5.63;1.70;;;3.60;99.90;;;;;;9978417;28;20536;-65
2023/01/17 22:09:34;;;;;;;5.60;1.90;;;3.40;99.90;;;;;;9978561;28;20032;-61
2023/01/17 22:14:24;;;;;;;3.40;1.65;;;3.30;99.90;;;;;;9978231;28;20026;-60
2023/01/17 22:19:15;;;;;;;2.65;1.67;;;3.30;99.90;;;;;;9988891;28;20036;-61
2023/01/17 22:24:06;;;;;;;2.72;1.42;;;3.30;99.90;;;;;;9977234;28;20370;-63
2023/01/17 22:29:01;;;;;;;5.25;2.55;;;3.20;99.90;;;;;;9976831;28;20030;-59
2023/01/17 22:33:56;;;;;;;3.28;1.30;;;3.20;99.90;;;;;;9977227;28;20065;-63
2023/01/17 22:38:47;;;;;;;2.88;1.73;;;3.30;99.90;;;;;;9976574;28;20026;-61
2023/01/17 22:43:42;;;;;;;5.00;2.15;;;3.20;99.90;;;;;;9985515;28;20472;-60
2023/01/17 22:48:33;;;;;;;3.92;1.70;;;3.20;99.90;;;;;;9976243;28;20506;-60
2023/01/17 22:53:24;;;;;;;6.75;2.20;;;3.20;99.90;;;;;;9973181;28;20045;-61
2023/01/17 22:58:15;;;;;;;3.95;1.80;;;3.30;99.90;;;;;;9987545;28;20034;-60
2023/01/17 23:03:06;;;;;;;5.75;2.38;;;3.30;99.90;;;;;;9971475;28;20037;-60
2023/01/17 23:07:57;;;;;;;3.40;1.73;;;3.20;99.90;;;;;;9972695;28;20043;-60
2023/01/17 23:12:49;;;;;;;5.60;1.77;;;3.20;99.90;;;;;;9975595;28;20038;-63
2023/01/17 23:22:49;;;;;;;4.25;1.73;;;3.10;99.90;;;;;;9983416;28;20037;-63
2023/01/17 23:32:58;;;;;;;6.65;2.30;;;3.10;99.90;;;;;;9999700;28;20028;-61
2023/01/17 23:48:08;;;;;;;7.75;4.25;;;3.20;99.90;;;;;;10008553;28;20099;-60
2023/01/17 23:52:59;;;;;;;3.75;1.88;;;3.20;99.90;;;;;;9971241;28;20033;-59
2023/01/17 23:57:53;;;;;;;5.47;2.20;;;3.10;99.90;;;;;;9995931;28;20429;-60
